Time;durP1;ratioP1;P1;durP2;ratioP2;P2;SDS_P1;SDS_P2;PMS_P1;PMS_P2;Temp;Humidity;BMP_temperature;BMP_pressure;BME280_temperature;BME280_humidity;BME280_pressure;Samples;Min_cycle;Max_cycle;Signal;HPM_P1;HPM_P2
2023/03/31 00:02:13;;;;;;;6.30;2.60;;;9.30;99.90;;;;;;4993826;28;20491;-53
2023/03/31 00:04:44;;;;;;;3.10;2.10;;;9.30;99.90;;;;;;4992244;28;20490;-53
2023/03/31 00:07:12;;;;;;;4.97;2.43;;;9.30;99.90;;;;;;4993575;28;20478;-53
2023/03/31 00:09:39;;;;;;;5.70;2.50;;;9.30;99.90;;;;;;4991678;28;21024;-53
2023/03/31 00:12:06;;;;;;;6.87;2.30;;;9.40;99.90;;;;;;4992533;28;20499;-53
2023/03/31 00:14:34;;;;;;;5.57;2.37;;;9.40;99.90;;;;;;4990738;28;20524;-53
2023/03/31 00:17:03;;;;;;;5.30;2.73;;;9.40;99.90;;;;;;4993278;28;20450;-53
2023/03/31 00:19:32;;;;;;;9.90;2.73;;;9.40;99.90;;;;;;4992497;28;20458;-53
2023/03/31 00:22:00;;;;;;;8.20;2.80;;;9.40;99.00;;;;;;4993286;28;20550;-53
2023/03/31 00:24:27;;;;;;;8.00;2.40;;;9.40;81.20;;;;;;4990261;28;21035;-53
2023/03/31 00:26:54;;;;;;;7.23;2.40;;;9.40;75.30;;;;;;4990751;28;20547;-54
2023/03/31 00:29:20;;;;;;;8.37;2.40;;;9.40;20.30;;;;;;4992089;28;20509;-54
2023/03/31 00:31:48;;;;;;;6.70;2.30;;;9.40;20.00;;;;;;4991594;28;20529;-54
2023/03/31 00:34:15;;;;;;;7.27;2.40;;;9.40;74.10;;;;;;4989451;28;20529;-54
2023/03/31 00:36:46;;;;;;;12.80;2.60;;;9.40;74.80;;;;;;4988788;28;20902;-54
2023/03/31 00:39:13;;;;;;;4.13;2.30;;;9.40;73.80;;;;;;4990599;28;20449;-54
2023/03/31 00:41:40;;;;;;;4.27;2.10;;;9.40;73.10;;;;;;4984986;28;20541;-53
2023/03/31 00:44:11;;;;;;;12.57;2.90;;;9.40;21.70;;;;;;4990873;28;21077;-54
2023/03/31 00:46:43;;;;;;;5.90;2.03;;;9.30;22.90;;;;;;4989596;28;20458;-54
2023/03/31 00:49:19;;;;;;;5.43;2.30;;;9.30;20.70;;;;;;4989773;28;20504;-54
2023/03/31 00:51:48;;;;;;;7.47;2.70;;;9.30;84.00;;;;;;4993202;28;20503;-53
2023/03/31 00:54:18;;;;;;;6.50;3.10;;;9.40;21.30;;;;;;4989192;28;20481;-53
2023/03/31 00:56:47;;;;;;;6.53;3.40;;;9.30;21.80;;;;;;4990575;28;20524;-54
2023/03/31 00:59:15;;;;;;;8.43;2.80;;;9.40;24.50;;;;;;4991427;28;20466;-53
2023/03/31 01:01:49;;;;;;;4.63;2.30;;;9.40;25.30;;;;;;4989763;28;20463;-52
2023/03/31 01:04:21;;;;;;;4.87;2.73;;;9.40;27.90;;;;;;5032027;22;20598;-51
2023/03/31 01:06:59;;;;;;;4.57;2.60;;;9.50;30.10;;;;;;5011704;28;20560;-51
2023/03/31 01:09:33;;;;;;;4.50;2.20;;;9.50;31.40;;;;;;5007651;28;20828;-51
2023/03/31 01:12:03;;;;;;;6.20;2.20;;;9.50;32.30;;;;;;5006996;28;20488;-51
2023/03/31 01:14:31;;;;;;;6.60;2.50;;;9.50;34.40;;;;;;5006494;28;21054;-51
2023/03/31 01:16:57;;;;;;;6.70;2.30;;;9.50;36.30;;;;;;5015793;28;20564;-51
2023/03/31 01:19:35;;;;;;;9.37;2.80;;;9.40;37.40;;;;;;5017741;28;20512;-51
2023/03/31 01:22:28;;;;;;;7.80;2.43;;;9.40;37.70;;;;;;5011558;28;20842;-50
2023/03/31 01:25:21;;;;;;;7.70;2.43;;;9.30;35.60;;;;;;5009862;28;20575;-51
2023/03/31 01:28:00;;;;;;;5.93;2.43;;;9.30;33.50;;;;;;5002165;28;20572;-51
2023/03/31 01:30:57;;;;;;;7.80;2.77;;;9.30;32.80;;;;;;5003262;28;20464;-51
2023/03/31 01:33:46;;;;;;;7.83;2.33;;;9.30;34.50;;;;;;4968620;28;20575;-50
2023/03/31 01:36:45;;;;;;;7.73;2.43;;;9.30;35.90;;;;;;5010904;28;20488;-51
2023/03/31 01:39:33;;;;;;;9.93;2.30;;;9.30;37.80;;;;;;5006832;28;20476;-51
2023/03/31 01:42:07;;;;;;;5.30;2.50;;;9.30;41.90;;;;;;5004938;28;20466;-51
2023/03/31 01:44:40;;;;;;;3.70;2.33;;;9.20;43.90;;;;;;5003729;28;20498;-51
2023/03/31 01:47:11;;;;;;;7.70;2.03;;;9.20;43.10;;;;;;5011814;28;20476;-51
2023/03/31 01:49:45;;;;;;;3.47;1.73;;;9.10;45.10;;;;;;5002624;28;20546;-51
2023/03/31 01:52:19;;;;;;;6.50;2.33;;;9.10;48.50;;;;;;5015152;28;20580;-51
2023/03/31 01:54:50;;;;;;;6.07;2.57;;;9.10;49.20;;;;;;5010000;28;20464;-51
2023/03/31 01:57:22;;;;;;;9.23;2.57;;;9.10;49.70;;;;;;5010094;28;20467;-51
2023/03/31 01:59:56;;;;;;;7.67;2.50;;;9.00;50.40;;;;;;5011526;28;20492;-51
2023/03/31 02:02:27;;;;;;;3.37;1.90;;;9.00;48.90;;;;;;5011788;28;20533;-51
2023/03/31 02:04:58;;;;;;;3.70;1.80;;;9.00;50.70;;;;;;5014476;28;20530;-51
2023/03/31 02:07:28;;;;;;;3.23;1.70;;;9.00;47.60;;;;;;5015953;28;20460;-51
2023/03/31 02:10:00;;;;;;;7.60;2.33;;;9.00;50.00;;;;;;5016774;28;20559;-52
2023/03/31 02:12:31;;;;;;;5.97;2.33;;;9.00;53.30;;;;;;5012990;28;20492;-52
2023/03/31 02:15:00;;;;;;;6.93;2.53;;;9.00;54.10;;;;;;5013818;28;20575;-52
2023/03/31 02:17:29;;;;;;;7.23;2.50;;;9.00;50.60;;;;;;5019913;28;20488;-51
2023/03/31 02:19:57;;;;;;;4.37;1.83;;;8.90;50.40;;;;;;5021696;28;20471;-52
2023/03/31 02:22:26;;;;;;;3.20;1.90;;;8.90;49.00;;;;;;5015788;28;20953;-51
2023/03/31 02:24:54;;;;;;;4.57;2.03;;;8.90;49.40;;;;;;5019938;28;20523;-51
2023/03/31 02:27:23;;;;;;;5.43;1.97;;;8.90;47.90;;;;;;5017188;28;21178;-51
2023/03/31 02:29:52;;;;;;;3.30;1.57;;;8.90;47.50;;;;;;5018930;28;20997;-51
2023/03/31 02:32:24;;;;;;;3.00;1.80;;;8.90;47.60;;;;;;5011012;28;21085;-51
2023/03/31 02:34:51;;;;;;;15.37;2.97;;;8.90;45.50;;;;;;5020303;28;20480;-51
2023/03/31 02:37:18;;;;;;;6.17;2.80;;;9.00;43.00;;;;;;5019463;28;20556;-51
2023/03/31 02:39:47;;;;;;;7.57;3.87;;;9.00;47.50;;;;;;5020818;28;20544;-52
2023/03/31 02:42:14;;;;;;;5.53;2.70;;;9.00;49.60;;;;;;5028266;28;20497;-51
2023/03/31 02:44:41;;;;;;;3.63;2.27;;;9.00;51.50;;;;;;5020881;28;20920;-51
2023/03/31 02:47:12;;;;;;;6.23;2.40;;;9.00;52.40;;;;;;5018447;28;20504;-51
2023/03/31 02:49:42;;;;;;;6.37;2.00;;;9.00;52.90;;;;;;5021537;28;20904;-51
2023/03/31 02:52:35;;;;;;;5.77;2.17;;;8.90;49.20;;;;;;5011231;28;20568;-51
2023/03/31 02:55:26;;;;;;;6.63;2.63;;;8.90;49.50;;;;;;5011080;28;20535;-51
2023/03/31 02:58:29;;;;;;;11.77;2.47;;;8.90;48.70;;;;;;5013563;28;20450;-51
2023/03/31 03:01:20;;;;;;;5.30;1.80;;;8.90;48.10;;;;;;5009938;28;20511;-51
2023/03/31 03:04:02;;;;;;;4.73;2.30;;;8.90;45.60;;;;;;5011119;28;20497;-51
2023/03/31 03:06:37;;;;;;;6.43;1.80;;;8.90;44.90;;;;;;5004462;28;20554;-51
2023/03/31 03:09:12;;;;;;;3.83;1.80;;;8.90;44.30;;;;;;5013884;28;20500;-51
2023/03/31 03:11:46;;;;;;;5.33;2.30;;;8.90;44.40;;;;;;5014140;28;20532;-51
2023/03/31 03:14:22;;;;;;;2.77;2.03;;;8.90;45.50;;;;;;5012605;28;20499;-51
2023/03/31 03:16:55;;;;;;;5.00;1.83;;;8.90;46.10;;;;;;5028068;28;20535;-52
2023/03/31 03:19:24;;;;;;;7.03;2.57;;;8.90;46.60;;;;;;5022985;28;22828;-50
2023/03/31 03:21:50;;;;;;;10.03;2.33;;;8.90;47.00;;;;;;5013798;28;20562;-52
2023/03/31 03:24:18;;;;;;;5.07;2.03;;;8.90;46.90;;;;;;5013315;28;20552;-51
2023/03/31 03:26:45;;;;;;;5.37;2.20;;;9.00;48.20;;;;;;5013813;28;20484;-51
2023/03/31 03:29:13;;;;;;;5.93;1.90;;;8.90;47.90;;;;;;5013826;28;20483;-51
2023/03/31 03:31:40;;;;;;;7.07;2.30;;;8.90;47.10;;;;;;5013508;28;20533;-51
2023/03/31 03:34:08;;;;;;;6.40;2.03;;;8.90;45.80;;;;;;5014237;28;20977;-51
2023/03/31 03:36:36;;;;;;;3.60;2.80;;;8.90;44.30;;;;;;5012387;28;20468;-51
2023/03/31 03:39:03;;;;;;;6.73;3.07;;;9.00;42.00;;;;;;5013583;28;20454;-51
2023/03/31 03:41:32;;;;;;;5.73;2.57;;;8.90;39.80;;;;;;5013617;28;20456;-51
2023/03/31 03:43:58;;;;;;;6.53;2.00;;;8.90;36.60;;;;;;5012571;28;20524;-51
2023/03/31 03:46:25;;;;;;;1.93;1.60;;;8.90;30.30;;;;;;5013634;28;20456;-51
2023/03/31 03:48:52;;;;;;;2.90;1.73;;;8.80;28.20;;;;;;5015448;28;20503;-51
2023/03/31 03:51:18;;;;;;;4.50;2.00;;;8.80;27.20;;;;;;5030992;28;20466;-51
2023/03/31 03:53:46;;;;;;;5.60;2.00;;;8.80;25.10;;;;;;5015331;28;21041;-51
2023/03/31 03:56:13;;;;;;;10.17;2.47;;;8.80;23.50;;;;;;5013216;28;20541;-51
2023/03/31 03:58:39;;;;;;;2.80;1.47;;;8.80;21.80;;;;;;5013103;28;20532;-51
2023/03/31 04:01:06;;;;;;;5.80;2.33;;;8.80;22.70;;;;;;5012588;28;20975;-51
2023/03/31 04:03:33;;;;;;;11.43;2.60;;;8.80;22.90;;;;;;5015025;28;20529;-51
2023/03/31 04:05:59;;;;;;;4.77;2.50;;;8.80;23.20;;;;;;5012474;28;20568;-51
2023/03/31 04:08:26;;;;;;;9.47;2.77;;;8.80;22.80;;;;;;5012377;28;20470;-51
2023/03/31 04:10:54;;;;;;;9.07;2.60;;;8.80;24.90;;;;;;5007016;28;20500;-51
2023/03/31 04:13:20;;;;;;;3.10;2.20;;;8.80;24.70;;;;;;5002760;28;20982;-51
2023/03/31 04:15:48;;;;;;;7.40;3.23;;;8.80;25.40;;;;;;5005138;28;20569;-52
2023/03/31 04:18:21;;;;;;;8.40;3.70;;;8.80;25.60;;;;;;5011365;28;20510;-52
2023/03/31 04:20:53;;;;;;;4.03;2.63;;;8.80;24.70;;;;;;5012362;28;20460;-51
2023/03/31 04:23:22;;;;;;;5.60;2.60;;;8.80;25.90;;;;;;5012786;28;20457;-51
2023/03/31 04:25:49;;;;;;;2.83;2.00;;;8.80;26.30;;;;;;5010818;28;20571;-52
2023/03/31 04:28:18;;;;;;;3.70;2.00;;;8.80;25.70;;;;;;5012017;28;20464;-51
2023/03/31 04:30:45;;;;;;;6.23;2.80;;;8.80;25.30;;;;;;5003163;28;20465;-51
2023/03/31 04:33:14;;;;;;;3.90;2.13;;;8.90;27.00;;;;;;5012139;28;20521;-51
2023/03/31 04:35:51;;;;;;;6.63;2.50;;;8.80;27.30;;;;;;5008886;28;20569;-51
2023/03/31 04:38:19;;;;;;;4.47;2.20;;;8.90;27.80;;;;;;5004691;28;20880;-51
2023/03/31 04:40:46;;;;;;;3.53;1.83;;;8.90;27.80;;;;;;5008390;28;20515;-52
2023/03/31 04:43:14;;;;;;;3.20;1.70;;;8.90;28.50;;;;;;5005457;28;20468;-51
2023/03/31 04:45:42;;;;;;;1.73;1.50;;;9.00;29.70;;;;;;5010060;28;20479;-52
2023/03/31 04:48:09;;;;;;;9.43;2.40;;;9.00;32.60;;;;;;5007706;28;20554;-51
2023/03/31 04:50:36;;;;;;;4.57;1.90;;;9.10;37.40;;;;;;5009016;28;20462;-50
2023/03/31 04:53:02;;;;;;;2.40;1.50;;;9.10;38.80;;;;;;5008867;28;20494;-50
2023/03/31 04:55:29;;;;;;;4.57;1.77;;;9.10;38.30;;;;;;5006031;28;20531;-50
2023/03/31 04:57:56;;;;;;;5.20;1.53;;;9.10;38.00;;;;;;5012818;28;20539;-51
2023/03/31 05:00:23;;;;;;;7.33;1.90;;;9.10;39.00;;;;;;5011544;28;20465;-50
2023/03/31 05:02:51;;;;;;;3.90;1.63;;;9.20;40.80;;;;;;5007358;28;20540;-50
2023/03/31 05:05:18;;;;;;;2.33;1.70;;;9.20;43.70;;;;;;5011958;28;20532;-52
2023/03/31 05:07:45;;;;;;;6.07;2.10;;;9.20;44.70;;;;;;5006945;28;20483;-50
2023/03/31 05:10:11;;;;;;;3.27;1.57;;;9.20;44.20;;;;;;5021377;28;20465;-51
2023/03/31 05:12:38;;;;;;;4.10;1.60;;;9.20;43.60;;;;;;5021420;28;20508;-51
2023/03/31 05:15:07;;;;;;;3.97;1.73;;;9.20;44.50;;;;;;5025623;28;20481;-52
2023/03/31 05:17:35;;;;;;;2.63;1.70;;;9.20;44.60;;;;;;5025457;28;20474;-51
2023/03/31 05:20:05;;;;;;;8.07;1.57;;;9.20;44.70;;;;;;5025919;28;20533;-71
2023/03/31 05:22:34;;;;;;;3.47;1.80;;;9.20;46.20;;;;;;5010216;28;20458;-66
2023/03/31 05:25:01;;;;;;;5.70;2.00;;;9.20;45.40;;;;;;5006772;28;20517;-62
2023/03/31 05:27:27;;;;;;;5.27;1.90;;;9.20;46.30;;;;;;5011819;28;20543;-51
2023/03/31 05:29:54;;;;;;;5.13;2.10;;;9.20;44.90;;;;;;5003658;28;20552;-53
2023/03/31 05:32:20;;;;;;;3.80;1.87;;;9.10;43.60;;;;;;5008067;28;20473;-57
2023/03/31 05:34:48;;;;;;;4.93;1.80;;;9.00;43.50;;;;;;5007082;28;20559;-57
2023/03/31 05:37:16;;;;;;;6.83;2.90;;;9.00;41.80;;;;;;5000013;28;20492;-57
2023/03/31 05:39:42;;;;;;;11.27;2.63;;;9.10;38.80;;;;;;5015293;28;20536;-60
2023/03/31 05:42:09;;;;;;;4.43;1.97;;;9.00;38.50;;;;;;5016109;28;20492;-57
2023/03/31 05:44:35;;;;;;;4.97;2.17;;;9.10;39.10;;;;;;5011940;28;21025;-57
2023/03/31 05:47:02;;;;;;;7.73;2.00;;;9.10;40.00;;;;;;5017215;28;20540;-57
2023/03/31 05:49:29;;;;;;;4.77;1.70;;;9.20;43.90;;;;;;5013826;28;20544;-59
2023/03/31 05:51:55;;;;;;;12.63;2.27;;;9.30;49.90;;;;;;5009565;28;20886;-58
2023/03/31 05:54:23;;;;;;;4.33;1.80;;;9.40;52.00;;;;;;5005583;28;20577;-58
2023/03/31 05:56:50;;;;;;;5.17;1.60;;;9.60;61.90;;;;;;5003877;28;20462;-57
2023/03/31 05:59:16;;;;;;;8.23;2.60;;;9.80;74.30;;;;;;5012801;28;20488;-57
2023/03/31 06:01:43;;;;;;;6.30;1.80;;;9.90;77.80;;;;;;5012646;28;20547;-57
2023/03/31 06:04:10;;;;;;;6.70;2.90;;;9.90;83.90;;;;;;5011846;28;20579;-58
2023/03/31 06:06:36;;;;;;;5.00;2.10;;;10.00;89.40;;;;;;5011597;28;20810;-58
2023/03/31 06:09:04;;;;;;;4.93;1.80;;;10.00;95.60;;;;;;5007227;28;20460;-57
2023/03/31 06:11:32;;;;;;;5.20;1.83;;;10.20;99.90;;;;;;5014200;28;20950;-57
2023/03/31 06:13:59;;;;;;;6.43;2.17;;;10.20;99.90;;;;;;5014205;28;20535;-57
2023/03/31 06:16:27;;;;;;;12.13;1.67;;;10.10;99.90;;;;;;5013938;28;20468;-57
2023/03/31 06:18:54;;;;;;;5.43;2.30;;;10.10;99.90;;;;;;5008586;28;20453;-57
2023/03/31 06:21:21;;;;;;;6.60;2.07;;;10.00;99.90;;;;;;5013661;28;20472;-56
2023/03/31 06:23:48;;;;;;;3.50;2.00;;;9.90;97.30;;;;;;5011852;28;20493;-50
2023/03/31 06:26:17;;;;;;;5.53;1.97;;;9.90;98.20;;;;;;5013554;28;20462;-50
2023/03/31 06:28:46;;;;;;;4.77;2.23;;;10.00;98.60;;;;;;5010290;28;20543;-51
2023/03/31 06:31:15;;;;;;;9.00;2.77;;;10.10;99.60;;;;;;5012206;28;20536;-51
2023/03/31 06:33:43;;;;;;;7.00;1.87;;;10.20;99.90;;;;;;5012129;28;20616;-50
2023/03/31 06:36:10;;;;;;;4.57;2.83;;;10.30;99.90;;;;;;5016066;28;20465;-50
2023/03/31 06:38:38;;;;;;;6.23;2.40;;;10.40;99.90;;;;;;5011945;28;20558;-50
2023/03/31 06:41:05;;;;;;;6.80;2.70;;;10.30;99.90;;;;;;5009370;28;20470;-51
2023/03/31 06:43:31;;;;;;;2.13;1.50;;;10.30;99.90;;;;;;5005115;28;20530;-50
2023/03/31 06:46:00;;;;;;;4.33;2.07;;;10.30;99.90;;;;;;5010547;28;20908;-50
2023/03/31 06:48:27;;;;;;;3.97;1.70;;;10.20;99.90;;;;;;5011671;28;20456;-50
2023/03/31 06:50:54;;;;;;;12.60;3.57;;;10.20;99.90;;;;;;5012770;28;20556;-51
2023/03/31 06:53:21;;;;;;;10.20;2.10;;;10.20;99.90;;;;;;5013447;28;20580;-50
2023/03/31 06:55:48;;;;;;;8.80;2.30;;;10.30;99.90;;;;;;5004688;28;20496;-50
2023/03/31 06:58:15;;;;;;;5.03;2.13;;;10.50;99.90;;;;;;5013613;28;21050;-50
2023/03/31 07:00:41;;;;;;;14.43;3.30;;;10.70;99.90;;;;;;5010621;28;20497;-50
2023/03/31 07:03:09;;;;;;;10.13;2.93;;;10.90;99.90;;;;;;5008944;28;20465;-50
2023/03/31 07:05:36;;;;;;;3.93;2.10;;;11.00;99.90;;;;;;5023880;23;20549;-55
2023/03/31 07:08:02;;;;;;;8.27;1.70;;;11.00;99.90;;;;;;4993979;28;20942;-53
2023/03/31 07:10:31;;;;;;;6.90;2.50;;;11.20;99.90;;;;;;4985939;28;20553;-53
2023/03/31 07:12:58;;;;;;;4.20;2.27;;;11.30;99.90;;;;;;4994011;28;20556;-54
2023/03/31 07:15:25;;;;;;;5.00;2.13;;;11.40;99.90;;;;;;4979318;28;20569;-50
2023/03/31 07:17:52;;;;;;;8.30;2.17;;;11.40;99.90;;;;;;4972855;28;20459;-57
2023/03/31 07:20:20;;;;;;;6.97;2.40;;;11.40;99.90;;;;;;4971461;28;20457;-56
2023/03/31 07:22:48;;;;;;;9.50;3.07;;;11.40;99.90;;;;;;4976887;28;20501;-49
2023/03/31 07:25:16;;;;;;;6.73;2.33;;;11.40;99.90;;;;;;4972654;28;20482;-49
2023/03/31 07:27:44;;;;;;;9.77;2.33;;;11.50;99.90;;;;;;4967382;28;20526;-55
2023/03/31 07:30:13;;;;;;;3.77;1.80;;;11.50;99.90;;;;;;4969111;28;22407;-55
2023/03/31 07:32:40;;;;;;;4.67;1.97;;;11.60;99.90;;;;;;4972000;28;20490;-55
2023/03/31 07:35:07;;;;;;;11.67;2.20;;;11.70;99.90;;;;;;4970550;28;21177;-55
2023/03/31 07:37:36;;;;;;;10.20;2.57;;;11.70;99.90;;;;;;4970074;28;20564;-56
2023/03/31 07:40:05;;;;;;;8.43;2.40;;;11.90;99.90;;;;;;4971593;28;20472;-56
2023/03/31 07:42:31;;;;;;;8.30;2.20;;;12.00;99.90;;;;;;4963823;28;20465;-56
2023/03/31 07:44:58;;;;;;;6.00;2.37;;;12.00;99.90;;;;;;4967909;28;20537;-56
2023/03/31 07:47:26;;;;;;;7.27;2.93;;;12.20;99.90;;;;;;4974564;28;20562;-56
2023/03/31 07:49:53;;;;;;;11.20;2.60;;;12.40;99.90;;;;;;4971461;28;20549;-56
2023/03/31 07:52:20;;;;;;;5.47;2.07;;;12.40;99.90;;;;;;4970489;28;21024;-56
2023/03/31 07:54:48;;;;;;;6.30;1.80;;;12.50;99.90;;;;;;4971379;28;20482;-56
2023/03/31 07:57:15;;;;;;;4.67;1.80;;;12.50;99.90;;;;;;4971765;28;20487;-57
2023/03/31 07:59:42;;;;;;;9.37;2.10;;;12.50;99.90;;;;;;4972267;28;20462;-56
2023/03/31 08:02:12;;;;;;;10.00;2.40;;;12.50;99.90;;;;;;4965542;28;20501;-56
2023/03/31 08:04:40;;;;;;;7.03;2.20;;;12.50;99.90;;;;;;4970434;28;20462;-56
2023/03/31 08:07:07;;;;;;;11.03;2.00;;;12.60;99.90;;;;;;4970719;28;20497;-55
2023/03/31 08:09:34;;;;;;;4.30;2.03;;;12.70;99.90;;;;;;4971678;28;20549;-56
2023/03/31 08:12:02;;;;;;;4.90;2.20;;;12.90;99.90;;;;;;4971385;28;20937;-56
2023/03/31 08:14:29;;;;;;;8.90;2.17;;;12.80;41.50;;;;;;4964374;28;20895;-56
2023/03/31 08:16:56;;;;;;;8.93;2.40;;;12.80;25.70;;;;;;4972032;28;20994;-55
2023/03/31 08:19:23;;;;;;;9.40;3.00;;;12.80;38.10;;;;;;4963854;28;20474;-55
2023/03/31 08:21:51;;;;;;;14.23;2.63;;;12.80;21.60;;;;;;4963108;28;20469;-57
2023/03/31 08:24:17;;;;;;;5.47;2.20;;;12.80;78.60;;;;;;4966999;28;20479;-55
2023/03/31 08:26:44;;;;;;;9.10;2.27;;;12.90;31.20;;;;;;4970446;28;20516;-55
2023/03/31 08:29:12;;;;;;;10.60;2.60;;;13.00;35.70;;;;;;4971096;28;20467;-55
2023/03/31 08:31:39;;;;;;;12.20;2.10;;;13.00;51.10;;;;;;4971608;28;20481;-55
2023/03/31 08:34:06;;;;;;;6.17;2.20;;;13.00;42.30;;;;;;4973172;28;20578;-56
2023/03/31 08:36:32;;;;;;;8.40;2.63;;;13.00;56.80;;;;;;4965136;28;20530;-56
2023/03/31 08:39:00;;;;;;;7.00;2.20;;;13.10;91.90;;;;;;4962671;28;20472;-55
2023/03/31 08:41:39;;;;;;;4.37;1.80;;;13.10;99.90;;;;;;4969002;28;20839;-55
2023/03/31 08:44:11;;;;;;;10.20;2.50;;;13.00;99.90;;;;;;4967880;28;20542;-51
2023/03/31 08:46:40;;;;;;;9.17;3.63;;;13.10;99.90;;;;;;4968999;28;20521;-49
2023/03/31 08:49:11;;;;;;;6.43;2.37;;;13.20;99.90;;;;;;4962865;28;20909;-49
2023/03/31 08:51:41;;;;;;;4.93;1.77;;;13.20;99.90;;;;;;4963855;28;20490;-50
2023/03/31 08:54:14;;;;;;;3.63;1.77;;;13.30;99.90;;;;;;4965549;28;20543;-50
2023/03/31 08:56:45;;;;;;;4.80;2.10;;;13.40;99.90;;;;;;4967863;28;20482;-50
2023/03/31 08:59:26;;;;;;;7.33;2.50;;;13.50;27.80;;;;;;4963410;28;20594;-50
2023/03/31 09:02:01;;;;;;;7.80;1.77;;;13.80;30.00;;;;;;4968311;28;20502;-50
2023/03/31 09:04:59;;;;;;;4.30;1.53;;;14.20;46.80;;;;;;4963188;28;20520;-50
2023/03/31 09:07:35;;;;;;;4.97;2.03;;;14.90;49.90;;;;;;4972187;28;20526;-50
2023/03/31 09:10:20;;;;;;;5.30;1.93;;;15.10;69.00;;;;;;4974553;28;21003;-51
2023/03/31 09:12:55;;;;;;;5.90;2.33;;;14.60;63.80;;;;;;4974405;28;20478;-51
2023/03/31 09:15:27;;;;;;;8.90;2.20;;;14.30;67.30;;;;;;4973863;28;20577;-51
2023/03/31 09:17:57;;;;;;;4.30;1.90;;;14.20;65.90;;;;;;4973263;28;20463;-50
2023/03/31 09:20:30;;;;;;;6.00;2.23;;;14.00;61.60;;;;;;4973121;28;20502;-51
2023/03/31 09:23:06;;;;;;;5.00;2.10;;;14.00;59.20;;;;;;4963495;28;20562;-50
2023/03/31 09:25:36;;;;;;;7.03;2.20;;;14.10;66.30;;;;;;4972036;28;20546;-51
2023/03/31 09:28:07;;;;;;;5.60;1.93;;;14.20;66.20;;;;;;4972056;28;21021;-52
2023/03/31 09:30:35;;;;;;;7.67;2.60;;;14.30;67.80;;;;;;4972004;28;20487;-49
2023/03/31 09:33:11;;;;;;;10.17;2.37;;;14.60;66.90;;;;;;4961815;28;20494;-52
2023/03/31 09:35:38;;;;;;;6.43;2.40;;;15.00;68.70;;;;;;4963840;28;20566;-53
2023/03/31 09:38:04;;;;;;;5.57;2.23;;;15.40;79.60;;;;;;4972961;28;20469;-52
2023/03/31 09:40:31;;;;;;;5.00;1.73;;;15.50;79.60;;;;;;4972094;28;21047;-52
2023/03/31 09:43:00;;;;;;;6.23;3.03;;;15.90;99.90;;;;;;4978056;28;20566;-52
2023/03/31 09:45:29;;;;;;;4.07;1.73;;;16.00;99.90;;;;;;4972881;28;20488;-55
2023/03/31 09:47:58;;;;;;;8.90;2.50;;;15.70;99.90;;;;;;4971250;28;20964;-57
2023/03/31 09:50:27;;;;;;;8.80;1.87;;;15.80;99.90;;;;;;4972861;28;20496;-56
2023/03/31 09:52:57;;;;;;;7.47;1.80;;;15.40;99.90;;;;;;4968271;28;20554;-56
2023/03/31 09:55:27;;;;;;;6.87;2.70;;;15.20;98.80;;;;;;4972078;28;20492;-55
2023/03/31 09:57:54;;;;;;;4.67;2.03;;;14.80;97.00;;;;;;4972287;28;20509;-57
2023/03/31 10:00:23;;;;;;;6.97;1.90;;;14.80;93.10;;;;;;4973424;28;20548;-55
2023/03/31 10:02:51;;;;;;;5.70;2.13;;;14.70;90.60;;;;;;4974189;28;20828;-56
2023/03/31 10:05:30;;;;;;;4.23;2.10;;;14.70;87.40;;;;;;4970031;28;20471;-56
2023/03/31 10:08:19;;;;;;;4.00;2.80;;;14.70;94.90;;;;;;4969396;28;20984;-56
2023/03/31 10:10:49;;;;;;;14.07;2.63;;;14.70;91.30;;;;;;4968115;28;20473;-56
2023/03/31 10:13:19;;;;;;;6.60;2.40;;;14.60;84.30;;;;;;4970507;28;20476;-55
2023/03/31 10:15:46;;;;;;;4.70;1.97;;;14.60;85.90;;;;;;4965497;28;20495;-56
2023/03/31 10:18:15;;;;;;;7.80;2.50;;;14.50;84.10;;;;;;4969919;28;20454;-55
2023/03/31 10:20:49;;;;;;;8.50;2.57;;;14.40;87.60;;;;;;4972848;28;21012;-54
2023/03/31 10:23:21;;;;;;;10.47;2.80;;;14.50;79.00;;;;;;4968329;28;20968;-56
2023/03/31 10:25:48;;;;;;;6.27;2.40;;;14.40;81.00;;;;;;4980313;28;20489;-50
2023/03/31 10:28:18;;;;;;;4.77;2.57;;;14.50;83.80;;;;;;4970389;28;20544;-50
2023/03/31 10:30:48;;;;;;;18.93;2.80;;;14.80;87.10;;;;;;4966868;28;20562;-50
2023/03/31 10:33:17;;;;;;;4.80;1.80;;;14.80;86.80;;;;;;4970168;28;20466;-49
2023/03/31 10:35:48;;;;;;;9.17;2.90;;;14.80;93.10;;;;;;4974528;28;20522;-50
2023/03/31 10:38:17;;;;;;;6.77;1.87;;;14.70;91.30;;;;;;4969135;28;20932;-55
2023/03/31 10:40:51;;;;;;;5.67;2.83;;;14.60;85.80;;;;;;4968774;28;20824;-50
2023/03/31 10:43:20;;;;;;;6.80;2.20;;;14.50;78.10;;;;;;4966074;28;20475;-50
2023/03/31 10:45:48;;;;;;;4.50;2.30;;;14.50;73.60;;;;;;4974229;28;20512;-50
2023/03/31 10:48:19;;;;;;;7.37;2.70;;;14.50;62.50;;;;;;4965367;28;20554;-49
2023/03/31 10:50:48;;;;;;;5.87;2.43;;;14.30;74.60;;;;;;4969834;28;20963;-50
2023/03/31 10:53:16;;;;;;;6.43;2.30;;;14.20;69.40;;;;;;4967888;28;20554;-49
2023/03/31 10:55:57;;;;;;;5.33;1.80;;;14.00;67.60;;;;;;4975656;28;20586;-49
2023/03/31 10:58:37;;;;;;;3.50;1.90;;;13.90;64.40;;;;;;4966215;28;20461;-50
2023/03/31 11:01:17;;;;;;;4.57;1.50;;;13.80;56.80;;;;;;4964858;28;20557;-49
2023/03/31 11:04:01;;;;;;;2.53;1.70;;;13.30;1.40;;;;;;4970023;28;20500;-49
2023/03/31 11:06:37;;;;;;;5.10;2.20;;;12.70;99.90;;;;;;4974889;28;20590;-49
2023/03/31 11:09:15;;;;;;;10.00;1.97;;;12.30;99.90;;;;;;4971219;28;20566;-49
2023/03/31 11:11:59;;;;;;;5.43;2.57;;;12.20;88.70;;;;;;4968482;28;22158;-49
2023/03/31 11:14:39;;;;;;;6.27;2.13;;;12.20;48.10;;;;;;4960084;28;20483;-51
2023/03/31 11:17:19;;;;;;;8.40;2.10;;;12.30;30.70;;;;;;4965909;28;21071;-50
2023/03/31 11:19:51;;;;;;;6.47;2.13;;;12.40;34.20;;;;;;4965787;28;20793;-50
2023/03/31 11:22:29;;;;;;;7.73;1.90;;;12.50;27.90;;;;;;4970092;28;20586;-49
2023/03/31 11:25:16;;;;;;;5.70;2.00;;;12.60;39.50;;;;;;4969874;28;20952;-49
2023/03/31 11:28:08;;;;;;;6.30;2.00;;;12.70;39.20;;;;;;4974279;28;20513;-49
2023/03/31 11:30:39;;;;;;;11.40;2.70;;;12.80;41.90;;;;;;4967414;28;20644;-50
2023/03/31 11:33:26;;;;;;;3.67;1.63;;;13.00;42.00;;;;;;4972407;28;20463;-50
2023/03/31 11:36:07;;;;;;;5.30;1.83;;;13.10;49.60;;;;;;4977609;28;20601;-49
2023/03/31 11:38:55;;;;;;;1.50;1.40;;;13.00;99.90;;;;;;4974684;28;20494;-49
2023/03/31 11:41:30;;;;;;;2.63;1.20;;;13.00;54.20;;;;;;4968846;28;20581;-51
2023/03/31 11:44:02;;;;;;;6.13;1.40;;;13.10;89.40;;;;;;4971440;28;20455;-50
2023/03/31 11:46:35;;;;;;;5.17;1.90;;;13.30;99.90;;;;;;4968210;28;20479;-50
2023/03/31 11:49:05;;;;;;;4.80;1.50;;;13.60;99.90;;;;;;4974026;28;20460;-49
2023/03/31 11:51:39;;;;;;;3.37;1.60;;;13.90;99.90;;;;;;4961276;28;20555;-50
2023/03/31 11:54:11;;;;;;;2.63;1.30;;;14.20;99.90;;;;;;4966566;28;20555;-50
2023/03/31 11:56:40;;;;;;;3.57;1.73;;;14.30;99.90;;;;;;4975236;28;20495;-50
2023/03/31 11:59:12;;;;;;;3.93;1.47;;;14.50;99.90;;;;;;4973856;28;21011;-49
2023/03/31 12:01:47;;;;;;;7.63;1.97;;;14.60;99.90;;;;;;4969208;28;20542;-49
2023/03/31 12:04:25;;;;;;;4.47;1.37;;;14.60;87.70;;;;;;4968885;28;20556;-49
2023/03/31 12:06:55;;;;;;;3.03;1.40;;;14.30;28.10;;;;;;4969749;28;20505;-50
2023/03/31 12:09:27;;;;;;;3.40;1.67;;;14.20;99.90;;;;;;4967873;28;20492;-49
2023/03/31 12:12:01;;;;;;;14.90;2.20;;;14.10;99.90;;;;;;4968394;28;21265;-50
2023/03/31 12:14:33;;;;;;;4.97;1.43;;;14.00;99.90;;;;;;4965531;28;20631;-49
2023/03/31 12:17:04;;;;;;;5.90;1.53;;;13.90;99.90;;;;;;4970965;28;20583;-50
2023/03/31 12:19:39;;;;;;;3.77;1.77;;;13.80;99.90;;;;;;4973527;28;20537;-50
2023/03/31 12:22:11;;;;;;;9.30;3.40;;;13.80;29.00;;;;;;4972152;28;21058;-49
2023/03/31 12:24:39;;;;;;;4.73;1.83;;;13.80;99.90;;;;;;4968928;28;20478;-50
2023/03/31 12:27:13;;;;;;;5.13;2.00;;;13.70;74.80;;;;;;4972312;28;20479;-50
2023/03/31 12:29:43;;;;;;;3.47;2.03;;;13.70;77.30;;;;;;4971217;28;20468;-49
2023/03/31 12:32:14;;;;;;;4.97;1.70;;;13.50;26.50;;;;;;4966649;28;20567;-49
2023/03/31 12:34:46;;;;;;;3.20;1.60;;;13.40;95.00;;;;;;4974343;28;20546;-50
2023/03/31 12:37:40;;;;;;;4.10;1.70;;;13.40;99.90;;;;;;4969789;28;20497;-50
2023/03/31 12:40:17;;;;;;;3.50;1.80;;;13.10;99.90;;;;;;4971281;28;20534;-51
2023/03/31 12:42:59;;;;;;;3.50;1.63;;;12.90;99.90;;;;;;4969305;28;20500;-51
2023/03/31 12:45:28;;;;;;;3.07;1.53;;;12.60;30.20;;;;;;4972174;28;20459;-51
2023/03/31 12:48:25;;;;;;;3.50;1.80;;;12.40;99.90;;;;;;4970208;28;20514;-50
2023/03/31 12:51:09;;;;;;;4.47;1.80;;;12.30;99.90;;;;;;4972177;28;20547;-50
2023/03/31 12:53:45;;;;;;;8.90;2.10;;;12.20;99.90;;;;;;4970262;28;20465;-49
2023/03/31 12:56:13;;;;;;;4.07;1.53;;;12.20;94.10;;;;;;4971887;28;20522;-50
2023/03/31 12:58:45;;;;;;;5.10;2.00;;;12.30;76.60;;;;;;4972378;28;20461;-50
2023/03/31 13:01:17;;;;;;;9.67;2.40;;;12.30;76.60;;;;;;4966413;28;20471;-49
2023/03/31 13:04:08;;;;;;;3.63;1.60;;;12.50;83.50;;;;;;4969286;28;21268;-49
2023/03/31 13:06:59;;;;;;;10.80;3.23;;;12.70;99.90;;;;;;4982933;23;20856;-51
2023/03/31 13:09:46;;;;;;;11.40;2.20;;;13.20;99.90;;;;;;5014670;28;20480;-52
2023/03/31 13:12:17;;;;;;;6.47;2.30;;;13.30;99.90;;;;;;5015442;28;20468;-52